createdAt,value
2023-03-18T00:03:18.554Z,14.95
2023-03-18T00:08:20.372Z,15.15
2023-03-18T00:13:22.164Z,14.07
2023-03-18T00:18:24.833Z,14.88
2023-03-18T00:23:28.015Z,13.95
2023-03-18T00:28:31.562Z,13.82
2023-03-18T00:33:36.005Z,13.32
2023-03-18T00:38:37.671Z,12.57
2023-03-18T00:43:52.500Z,12.60
2023-03-18T00:48:56.497Z,12.45
2023-03-18T00:54:00.551Z,12.27
2023-03-18T00:59:02.975Z,13.35
2023-03-18T01:04:06.234Z,13.20
2023-03-18T01:09:09.968Z,12.70
2023-03-18T01:14:12.339Z,13.13
2023-03-18T01:19:14.361Z,12.65
2023-03-18T01:24:16.228Z,13.00
2023-03-18T01:29:18.972Z,13.18
2023-03-18T01:34:21.605Z,13.10
2023-03-18T01:39:26.236Z,13.63
2023-03-18T01:44:27.985Z,11.73
2023-03-18T01:49:39.259Z,11.20
2023-03-18T01:54:45.245Z,11.43
2023-03-18T01:59:50.330Z,11.50
2023-03-18T02:04:54.922Z,10.65
2023-03-18T02:10:03.593Z,11.43
2023-03-18T02:15:11.784Z,12.48
2023-03-18T02:20:38.308Z,11.10
2023-03-18T02:25:47.848Z,9.70
2023-03-18T02:30:54.317Z,9.88
2023-03-18T02:36:02.173Z,8.88
2023-03-18T02:41:06.187Z,10.52
2023-03-18T02:46:31.210Z,13.45
2023-03-18T02:51:34.633Z,9.30
2023-03-18T02:56:37.871Z,10.38
2023-03-18T03:01:41.120Z,9.65
2023-03-18T03:06:43.730Z,9.68
2023-03-18T03:11:47.163Z,9.40
2023-03-18T03:16:54.260Z,10.27
2023-03-18T03:21:58.841Z,8.35
2023-03-18T03:27:00.638Z,9.32
2023-03-18T03:32:02.864Z,12.85
2023-03-18T03:37:04.709Z,10.15
2023-03-18T03:42:07.034Z,9.93
2023-03-18T03:47:08.718Z,8.40
2023-03-18T03:52:10.803Z,8.70
2023-03-18T03:57:14.829Z,10.25
2023-03-18T04:02:18.040Z,8.60
2023-03-18T04:07:20.226Z,9.35
2023-03-18T04:12:22.148Z,9.57
2023-03-18T04:17:34.594Z,8.90
2023-03-18T04:22:36.349Z,8.45
2023-03-18T04:27:41.080Z,9.05
2023-03-18T04:32:45.781Z,10.70
2023-03-18T04:37:48.716Z,10.88
2023-03-18T04:42:51.091Z,9.73
2023-03-18T04:47:57.768Z,9.90
2023-03-18T04:53:01.802Z,7.78
2023-03-18T04:58:05.553Z,7.95
2023-03-18T05:03:13.670Z,9.95
2023-03-18T05:08:16.352Z,9.93
2023-03-18T05:13:19.241Z,12.48
2023-03-18T05:18:22.264Z,9.10
2023-03-18T05:23:27.064Z,7.20
2023-03-18T05:28:31.601Z,9.10
2023-03-18T05:33:54.462Z,8.35
2023-03-18T05:38:57.704Z,8.38
2023-03-18T05:44:00.338Z,9.30
2023-03-18T05:49:03.878Z,7.45
2023-03-18T05:54:18.598Z,7.10
2023-03-18T05:59:22.141Z,9.32
2023-03-18T06:04:31.115Z,9.32
2023-03-18T06:09:35.742Z,9.43
2023-03-18T06:14:37.815Z,8.32
2023-03-18T06:19:41.207Z,7.60
2023-03-18T06:24:45.913Z,8.57
2023-03-18T06:29:49.023Z,8.63
2023-03-18T06:34:53.399Z,9.15
2023-03-18T06:39:55.554Z,8.65
2023-03-18T06:44:58.209Z,7.60
2023-03-18T06:50:13.672Z,8.73
2023-03-18T06:55:16.761Z,11.07
2023-03-18T07:00:22.885Z,10.65
2023-03-18T07:05:24.773Z,14.32
2023-03-18T07:10:29.848Z,12.60
2023-03-18T07:15:39.730Z,11.95
2023-03-18T07:20:42.358Z,12.43
2023-03-18T07:25:44.831Z,14.55
2023-03-18T07:30:47.167Z,15.40
2023-03-18T07:35:49.078Z,14.77
2023-03-18T07:40:51.412Z,15.55
2023-03-18T07:45:53.312Z,18.77
2023-03-18T07:50:55.106Z,16.67
2023-03-18T07:55:57.258Z,16.23
2023-03-18T08:00:59.861Z,15.68
2023-03-18T08:06:02.249Z,16.20
2023-03-18T08:11:04.314Z,16.98
2023-03-18T08:16:07.079Z,15.82
2023-03-18T08:21:09.614Z,17.05
2023-03-18T08:26:12.263Z,17.25
2023-03-18T08:31:16.622Z,17.25
2023-03-18T08:36:18.793Z,17.10
2023-03-18T08:41:20.839Z,16.98
2023-03-18T08:46:23.066Z,17.90
2023-03-18T08:51:25.667Z,16.15
2023-03-18T08:56:27.961Z,16.20
2023-03-18T09:01:30.305Z,16.17
2023-03-18T09:06:32.847Z,17.58
2023-03-18T09:11:34.986Z,17.08
2023-03-18T09:16:37.793Z,17.17
2023-03-18T09:21:39.650Z,17.60
2023-03-18T09:26:44.522Z,17.13
2023-03-18T09:31:46.989Z,15.45
2023-03-18T09:36:51.268Z,16.10
2023-03-18T09:42:02.202Z,15.65
2023-03-18T09:47:38.093Z,16.35
2023-03-18T09:53:09.432Z,15.52
2023-03-18T09:58:35.154Z,16.75
2023-03-18T10:03:47.762Z,16.35
2023-03-18T10:09:16.950Z,15.02
2023-03-18T10:14:38.053Z,16.45
2023-03-18T10:19:46.472Z,15.40
2023-03-18T10:24:58.842Z,16.10
2023-03-18T10:30:27.707Z,15.80
2023-03-18T10:36:13.652Z,16.02
2023-03-18T10:41:27.718Z,16.40
2023-03-18T10:46:31.842Z,16.20
2023-03-18T10:52:00.734Z,15.75
2023-03-18T10:57:02.551Z,15.55
2023-03-18T11:02:14.502Z,16.30
2023-03-18T11:07:25.920Z,15.00
2023-03-18T11:12:29.331Z,15.35
2023-03-18T11:17:37.247Z,15.23
2023-03-18T11:22:45.858Z,15.25
2023-03-18T11:27:51.382Z,14.98
2023-03-18T11:33:01.173Z,15.50
2023-03-18T11:38:04.734Z,15.40
2023-03-18T11:43:21.681Z,14.90
2023-03-18T11:48:31.194Z,15.30
2023-03-18T11:54:05.125Z,15.18
2023-03-18T11:59:27.879Z,15.55
2023-03-18T12:04:52.889Z,14.75
2023-03-18T12:09:58.917Z,15.40
2023-03-18T12:15:30.863Z,15.88
2023-03-18T12:20:50.693Z,16.17
2023-03-18T12:26:17.193Z,16.05
2023-03-18T12:31:50.363Z,16.15
2023-03-18T12:36:55.353Z,15.80
2023-03-18T12:42:25.223Z,15.93
2023-03-18T12:47:44.262Z,16.33
2023-03-18T12:52:56.509Z,16.38
2023-03-18T12:58:03.276Z,15.73
2023-03-18T13:03:22.299Z,16.27
2023-03-18T13:08:33.247Z,15.80
2023-03-18T13:13:39.580Z,14.80
2023-03-18T13:18:45.311Z,15.35
2023-03-18T13:24:09.255Z,15.13
2023-03-18T13:29:34.986Z,16.05
2023-03-18T13:34:56.253Z,15.48
2023-03-18T13:40:04.533Z,15.40
2023-03-18T13:45:08.931Z,15.65
2023-03-18T13:50:19.703Z,15.65
2023-03-18T13:55:42.915Z,15.23
2023-03-18T14:01:08.212Z,15.23
2023-03-18T14:06:10.701Z,15.82
2023-03-18T14:11:17.209Z,15.23
2023-03-18T14:16:24.796Z,15.98
2023-03-18T14:21:32.022Z,15.23
2023-03-18T14:26:33.634Z,15.55
2023-03-18T14:31:38.388Z,15.90
2023-03-18T14:37:14.655Z,16.65
2023-03-18T14:42:31.710Z,16.55
2023-03-18T14:47:48.655Z,18.05
2023-03-18T14:52:56.689Z,17.30
2023-03-18T14:57:58.298Z,17.38
2023-03-18T15:03:27.700Z,17.88
2023-03-18T15:08:47.177Z,18.10
2023-03-18T15:13:49.734Z,17.35
2023-03-18T15:18:53.897Z,18.13
2023-03-18T15:24:00.292Z,17.00
2023-03-18T15:29:24.172Z,17.60
2023-03-18T15:34:30.818Z,17.60
2023-03-18T15:39:38.010Z,17.58
2023-03-18T15:44:40.081Z,17.40
2023-03-18T15:50:14.588Z,17.08
2023-03-18T15:55:47.522Z,18.15
2023-03-18T16:00:50.657Z,18.27
2023-03-18T16:05:53.413Z,18.40
2023-03-18T16:10:58.046Z,20.70
2023-03-18T16:16:00.326Z,18.95
2023-03-18T16:21:02.594Z,17.70
2023-03-18T16:26:12.593Z,17.52
2023-03-18T16:31:14.568Z,18.38
2023-03-18T16:36:25.516Z,17.10
2023-03-18T16:41:27.218Z,20.33
2023-03-18T16:46:29.219Z,21.40
2023-03-18T16:51:32.052Z,21.65
2023-03-18T16:56:33.746Z,20.92
2023-03-18T17:01:35.500Z,23.42
2023-03-18T17:06:37.194Z,21.98
2023-03-18T17:11:39.642Z,22.40
2023-03-18T17:16:41.361Z,21.60
2023-03-18T17:21:43.038Z,22.13
2023-03-18T17:26:45.198Z,25.95
2023-03-18T17:31:46.827Z,24.85
2023-03-18T17:36:48.671Z,23.98
2023-03-18T17:41:50.489Z,25.10
2023-03-18T17:46:52.278Z,24.20
2023-03-18T17:51:55.808Z,21.70
2023-03-18T17:56:58.226Z,24.38
2023-03-18T18:01:59.929Z,20.73
2023-03-18T18:07:01.680Z,19.27
2023-03-18T18:12:03.615Z,18.27
2023-03-18T18:17:13.798Z,18.40
2023-03-18T18:22:19.152Z,17.35
2023-03-18T18:27:20.881Z,18.70
2023-03-18T18:32:24.741Z,20.52
2023-03-18T18:37:26.440Z,24.98
2023-03-18T18:42:28.259Z,23.23
2023-03-18T18:47:30.095Z,25.35
2023-03-18T18:52:34.084Z,23.55
2023-03-18T18:57:39.600Z,23.85
2023-03-18T19:02:43.348Z,25.02
2023-03-18T19:07:48.396Z,24.90
2023-03-18T19:12:50.164Z,28.10
2023-03-18T19:17:53.070Z,24.02
2023-03-18T19:22:56.803Z,22.98
2023-03-18T19:27:59.054Z,22.50
2023-03-18T19:33:02.380Z,21.10
2023-03-18T19:38:04.235Z,23.08
2023-03-18T19:43:18.854Z,26.92
2023-03-18T19:48:28.662Z,25.17
2023-03-18T19:53:30.701Z,30.65
2023-03-18T19:58:32.759Z,27.05
2023-03-18T20:03:35.597Z,26.50
2023-03-18T20:08:37.620Z,31.23
2023-03-18T20:13:39.724Z,36.70
2023-03-18T20:18:42.478Z,34.70
2023-03-18T20:23:44.538Z,22.17
2023-03-18T20:28:46.442Z,25.25
2023-03-18T20:33:48.704Z,29.90
2023-03-18T20:38:52.909Z,24.52
2023-03-18T20:43:54.747Z,21.80
2023-03-18T20:48:57.939Z,25.10
2023-03-18T20:54:00.726Z,25.33
2023-03-18T20:59:04.275Z,25.95
2023-03-18T21:04:06.710Z,25.27
2023-03-18T21:09:13.259Z,23.60
2023-03-18T21:14:15.983Z,29.88
2023-03-18T21:19:17.861Z,33.20
2023-03-18T21:24:26.306Z,30.33
2023-03-18T21:29:28.111Z,28.92
2023-03-18T21:34:30.041Z,24.63
2023-03-18T21:39:32.479Z,27.67
2023-03-18T21:44:34.375Z,26.45
2023-03-18T21:49:36.263Z,25.83
2023-03-18T21:54:38.164Z,25.95
2023-03-18T21:59:39.969Z,25.50
2023-03-18T22:04:41.864Z,31.90
2023-03-18T22:09:44.749Z,25.65
2023-03-18T22:14:46.707Z,28.35
2023-03-18T22:19:49.327Z,22.85
2023-03-18T22:24:52.787Z,23.60
2023-03-18T22:29:56.666Z,26.67
2023-03-18T22:34:58.570Z,28.45
2023-03-18T22:40:01.146Z,34.78
2023-03-18T22:45:03.691Z,29.90
2023-03-18T22:50:06.088Z,30.30
2023-03-18T22:55:23.805Z,29.08
2023-03-18T23:00:43.702Z,29.63
2023-03-18T23:05:51.640Z,23.85
2023-03-18T23:10:56.933Z,25.55
2023-03-18T23:15:58.850Z,25.55
2023-03-18T23:21:01.811Z,30.05
2023-03-18T23:26:03.681Z,25.42
2023-03-18T23:31:06.655Z,25.08
2023-03-18T23:36:09.052Z,28.80
2023-03-18T23:41:10.972Z,23.75
2023-03-18T23:46:12.849Z,26.45
2023-03-18T23:51:14.659Z,22.65
2023-03-18T23:56:17.294Z,25.52
